createdAt,value
2022-07-26T00:01:20.293Z,22.70
2022-07-26T00:03:51.789Z,22.60
2022-07-26T00:06:20.222Z,22.50
2022-07-26T00:08:49.182Z,22.40
2022-07-26T00:11:17.887Z,22.40
2022-07-26T00:13:46.814Z,22.20
2022-07-26T00:16:15.841Z,22.20
2022-07-26T00:18:44.483Z,22.10
2022-07-26T00:21:14.350Z,22.10
2022-07-26T00:23:42.702Z,22.10
2022-07-26T00:26:11.070Z,22.00
2022-07-26T00:28:41.200Z,22.00
2022-07-26T00:31:11.852Z,21.90
2022-07-26T00:33:40.809Z,21.90
2022-07-26T00:36:09.678Z,21.80
2022-07-26T00:38:40.616Z,21.70
2022-07-26T00:41:09.310Z,21.70
2022-07-26T00:43:37.690Z,21.70
2022-07-26T00:46:06.715Z,21.60
2022-07-26T00:48:35.108Z,21.60
2022-07-26T00:51:03.466Z,21.50
2022-07-26T00:53:31.970Z,21.50
2022-07-26T00:56:01.789Z,21.40
2022-07-26T00:58:30.127Z,21.30
2022-07-26T01:00:58.635Z,21.30
2022-07-26T01:03:29.098Z,21.20
2022-07-26T01:05:58.766Z,21.20
2022-07-26T01:10:56.341Z,21.10
2022-07-26T01:13:30.687Z,21.00
2022-07-26T01:16:01.745Z,21.00
2022-07-26T01:18:30.246Z,21.00
2022-07-26T01:21:13.360Z,21.00
2022-07-26T01:23:44.854Z,20.90
2022-07-26T01:26:13.822Z,20.90
2022-07-26T01:28:43.009Z,20.90
2022-07-26T01:31:11.427Z,20.90
2022-07-26T01:33:39.827Z,20.80
2022-07-26T01:36:09.220Z,20.80
2022-07-26T01:38:37.740Z,20.80
2022-07-26T01:41:07.740Z,20.70
2022-07-26T01:43:36.594Z,20.60
2022-07-26T01:46:05.923Z,20.70
2022-07-26T01:48:34.908Z,20.60
2022-07-26T01:51:04.041Z,20.60
2022-07-26T01:53:32.563Z,20.50
2022-07-26T01:56:00.881Z,20.50
2022-07-26T01:58:30.596Z,20.50
2022-07-26T02:00:58.899Z,20.50
2022-07-26T02:03:29.147Z,20.40
2022-07-26T02:05:57.453Z,20.40
2022-07-26T02:08:25.835Z,20.40
2022-07-26T02:11:03.679Z,20.40
2022-07-26T02:13:36.097Z,20.30
2022-07-26T02:16:06.955Z,20.30
2022-07-26T02:18:36.541Z,20.30
2022-07-26T02:21:06.493Z,20.20
2022-07-26T02:23:35.390Z,20.20
2022-07-26T02:28:39.272Z,20.20
2022-07-26T02:31:07.743Z,20.20
2022-07-26T02:33:36.060Z,20.20
2022-07-26T02:36:04.807Z,20.20
2022-07-26T02:38:33.119Z,20.10
2022-07-26T02:41:01.468Z,20.10
2022-07-26T02:43:30.589Z,20.10
2022-07-26T02:46:01.727Z,20.10
2022-07-26T02:48:33.014Z,20.10
2022-07-26T02:51:01.569Z,20.10
2022-07-26T02:53:29.883Z,20.10
2022-07-26T02:55:58.281Z,20.10
2022-07-26T02:58:27.180Z,20.00
2022-07-26T03:00:55.512Z,19.90
2022-07-26T03:03:25.270Z,19.90
2022-07-26T03:05:53.642Z,19.90
2022-07-26T03:08:22.601Z,19.80
2022-07-26T03:10:51.007Z,19.80
2022-07-26T03:13:19.451Z,19.70
2022-07-26T03:15:48.067Z,19.70
2022-07-26T03:18:16.554Z,19.70
2022-07-26T03:20:46.479Z,19.60
2022-07-26T03:23:14.821Z,19.50
2022-07-26T03:25:43.188Z,19.50
2022-07-26T03:28:16.027Z,19.50
2022-07-26T03:30:47.513Z,19.50
2022-07-26T03:33:15.843Z,19.40
2022-07-26T03:35:45.572Z,19.40
2022-07-26T03:38:13.885Z,19.40
2022-07-26T03:40:42.193Z,19.30
2022-07-26T03:43:10.511Z,19.30
2022-07-26T03:45:38.803Z,19.20
2022-07-26T03:48:08.053Z,19.10
2022-07-26T03:50:36.431Z,19.10
2022-07-26T03:53:06.753Z,18.90
2022-07-26T03:55:53.146Z,18.90
2022-07-26T03:58:21.571Z,18.90
2022-07-26T04:00:49.941Z,18.90
2022-07-26T04:03:18.263Z,18.90
2022-07-26T04:05:49.015Z,18.90
2022-07-26T04:08:19.048Z,18.90
2022-07-26T04:10:51.101Z,18.90
2022-07-26T04:13:19.864Z,18.90
2022-07-26T04:15:48.389Z,19.00
2022-07-26T04:18:17.125Z,18.90
2022-07-26T04:20:45.780Z,19.00
2022-07-26T04:23:14.301Z,19.00
2022-07-26T04:25:44.030Z,19.00
2022-07-26T04:28:13.273Z,19.10
2022-07-26T04:30:42.102Z,19.10
2022-07-26T04:33:11.062Z,19.20
2022-07-26T04:35:39.391Z,19.20
2022-07-26T04:38:07.883Z,19.20
2022-07-26T04:40:40.418Z,19.20
2022-07-26T04:43:16.079Z,19.30
2022-07-26T04:45:45.750Z,19.30
2022-07-26T04:48:14.537Z,19.20
2022-07-26T04:50:43.860Z,19.30
2022-07-26T04:53:12.420Z,19.30
2022-07-26T04:55:41.901Z,19.30
2022-07-26T04:58:12.120Z,19.40
2022-07-26T05:01:08.408Z,19.40
2022-07-26T05:03:28.948Z,19.40
2022-07-26T05:05:57.237Z,19.40
2022-07-26T05:08:25.538Z,19.40
2022-07-26T05:10:55.888Z,19.40
2022-07-26T05:13:30.361Z,19.40
2022-07-26T05:15:59.745Z,19.40
2022-07-26T05:18:31.608Z,19.40
2022-07-26T05:21:00.507Z,19.50
2022-07-26T05:23:28.948Z,19.40
2022-07-26T05:25:57.289Z,19.40
2022-07-26T05:28:27.014Z,19.30
2022-07-26T05:30:55.500Z,19.30
2022-07-26T05:33:23.836Z,19.20
2022-07-26T05:35:52.159Z,19.20
2022-07-26T05:38:20.677Z,19.20
2022-07-26T05:40:50.913Z,19.20
2022-07-26T05:43:19.493Z,19.20
2022-07-26T05:45:49.233Z,19.20
2022-07-26T05:48:17.559Z,19.20
2022-07-26T05:50:46.139Z,19.30
2022-07-26T05:53:14.579Z,19.30
2022-07-26T05:55:43.060Z,19.40
2022-07-26T05:58:11.601Z,19.40
2022-07-26T06:00:41.035Z,19.50
2022-07-26T06:03:23.945Z,19.60
2022-07-26T06:05:54.300Z,19.60
2022-07-26T06:08:23.711Z,19.70
2022-07-26T06:10:53.729Z,19.70
2022-07-26T06:13:22.055Z,19.70
2022-07-26T06:15:50.906Z,19.80
2022-07-26T06:18:20.716Z,19.70
2022-07-26T06:20:49.588Z,19.80
2022-07-26T06:23:17.993Z,19.80
2022-07-26T06:26:03.304Z,19.80
2022-07-26T06:28:32.006Z,19.90
2022-07-26T06:31:00.361Z,20.00
2022-07-26T06:33:30.208Z,20.00
2022-07-26T06:35:58.689Z,20.00
2022-07-26T06:38:27.174Z,20.10
2022-07-26T06:40:55.721Z,20.10
2022-07-26T06:43:24.020Z,20.00
2022-07-26T06:45:52.430Z,20.00
2022-07-26T06:48:20.750Z,20.00
2022-07-26T06:50:51.862Z,20.00
2022-07-26T06:53:20.148Z,20.00
2022-07-26T06:55:48.466Z,20.00
2022-07-26T06:58:16.910Z,20.10
2022-07-26T07:00:45.273Z,20.10
2022-07-26T07:03:13.635Z,20.10
2022-07-26T07:05:45.383Z,20.20
2022-07-26T07:08:21.331Z,20.20
2022-07-26T07:10:52.283Z,20.30
2022-07-26T07:13:21.328Z,20.30
2022-07-26T07:15:49.857Z,20.30
2022-07-26T07:18:18.353Z,20.40
2022-07-26T07:20:46.663Z,20.40
2022-07-26T07:23:15.037Z,20.40
2022-07-26T07:25:45.098Z,20.40
2022-07-26T07:28:13.438Z,20.50
2022-07-26T07:30:41.775Z,20.50
2022-07-26T07:33:22.295Z,20.50
2022-07-26T07:35:53.708Z,20.70
2022-07-26T07:38:22.364Z,20.70
2022-07-26T07:40:52.648Z,21.00
2022-07-26T07:43:20.916Z,21.20
2022-07-26T07:45:49.264Z,21.30
2022-07-26T07:48:17.626Z,21.30
2022-07-26T07:50:46.244Z,21.30
2022-07-26T07:53:14.722Z,21.30
2022-07-26T07:55:43.923Z,21.30
2022-07-26T07:58:17.310Z,21.40
2022-07-26T08:00:48.504Z,21.40
2022-07-26T08:03:18.115Z,21.40
2022-07-26T08:05:50.022Z,21.40
2022-07-26T08:08:22.124Z,21.50
2022-07-26T08:10:53.236Z,21.50
2022-07-26T08:13:24.392Z,21.70
2022-07-26T08:15:54.177Z,21.90
2022-07-26T08:18:25.389Z,21.90
2022-07-26T08:20:55.405Z,22.00
2022-07-26T08:23:24.159Z,22.30
2022-07-26T08:25:58.679Z,22.60
2022-07-26T08:28:47.970Z,22.90
2022-07-26T08:31:18.243Z,23.20
2022-07-26T08:33:47.064Z,23.30
2022-07-26T08:36:16.507Z,23.20
2022-07-26T08:38:47.705Z,23.20
2022-07-26T08:41:18.668Z,23.20
2022-07-26T08:43:51.925Z,23.30
2022-07-26T08:46:28.173Z,23.50
2022-07-26T08:48:57.744Z,23.90
2022-07-26T08:51:27.567Z,24.00
2022-07-26T08:54:04.005Z,24.20
2022-07-26T08:56:35.864Z,24.50
2022-07-26T08:59:19.077Z,24.90
2022-07-26T09:01:57.781Z,25.10
2022-07-26T09:04:32.623Z,25.30
2022-07-26T09:07:05.933Z,25.60
2022-07-26T09:09:36.748Z,25.60
2022-07-26T09:12:24.338Z,25.30
2022-07-26T09:14:55.260Z,25.30
2022-07-26T09:17:26.085Z,25.10
2022-07-26T09:20:09.357Z,25.10
2022-07-26T09:22:39.649Z,25.30
2022-07-26T09:25:23.031Z,25.70
2022-07-26T09:27:52.296Z,25.90
2022-07-26T09:30:22.807Z,26.20
2022-07-26T09:33:03.688Z,26.60
2022-07-26T09:35:51.307Z,27.00
2022-07-26T09:38:20.885Z,27.30
2022-07-26T09:40:51.363Z,27.30
2022-07-26T09:43:24.417Z,27.10
2022-07-26T09:46:07.733Z,26.70
2022-07-26T09:49:08.374Z,26.70
2022-07-26T09:51:40.241Z,27.00
2022-07-26T09:54:10.287Z,27.40
2022-07-26T09:56:47.990Z,27.10
2022-07-26T09:59:19.501Z,27.00
2022-07-26T10:01:50.287Z,26.70
2022-07-26T10:04:19.528Z,26.40
2022-07-26T10:06:48.930Z,26.40
2022-07-26T10:09:18.818Z,26.40
2022-07-26T10:12:09.961Z,26.70
2022-07-26T10:14:42.208Z,26.70
2022-07-26T10:17:49.352Z,27.00
2022-07-26T10:20:41.797Z,27.10
2022-07-26T10:23:40.883Z,27.50
2022-07-26T10:26:13.465Z,28.00
2022-07-26T10:28:42.897Z,28.50
2022-07-26T10:31:31.604Z,28.70
2022-07-26T10:34:04.444Z,28.50
2022-07-26T10:36:36.638Z,28.20
2022-07-26T10:39:14.266Z,27.90
2022-07-26T10:41:46.392Z,27.60
2022-07-26T10:44:21.412Z,27.20
2022-07-26T10:47:18.742Z,27.80
2022-07-26T10:50:00.579Z,26.80
2022-07-26T10:52:31.108Z,26.50
2022-07-26T10:55:10.003Z,26.40
2022-07-26T10:57:40.861Z,26.30
2022-07-26T11:00:15.081Z,26.30
2022-07-26T11:02:44.741Z,26.20
2022-07-26T11:05:18.704Z,26.20
2022-07-26T11:08:10.466Z,26.10
2022-07-26T11:10:41.062Z,26.00
2022-07-26T11:13:17.380Z,26.10
2022-07-26T11:15:48.727Z,26.30
2022-07-26T11:18:24.956Z,26.50
2022-07-26T11:20:56.894Z,26.60
2022-07-26T11:23:32.564Z,26.40
2022-07-26T11:26:16.334Z,26.40
2022-07-26T11:28:57.414Z,26.20
2022-07-26T11:31:51.284Z,26.20
2022-07-26T11:34:29.439Z,26.70
2022-07-26T11:37:02.165Z,27.50
2022-07-26T11:39:33.457Z,28.20
2022-07-26T11:42:04.220Z,28.90
2022-07-26T11:44:32.978Z,29.60
2022-07-26T11:47:11.107Z,30.00
2022-07-26T11:52:32.761Z,30.20
2022-07-26T11:55:01.693Z,30.10
2022-07-26T11:57:32.239Z,29.90
2022-07-26T12:00:01.590Z,29.60
2022-07-26T12:02:39.967Z,29.00
2022-07-26T12:05:17.073Z,28.40
2022-07-26T12:08:00.573Z,27.80
2022-07-26T12:10:29.569Z,27.30
2022-07-26T12:13:15.193Z,26.70
2022-07-26T12:15:52.506Z,26.60
2022-07-26T12:18:29.010Z,26.80
2022-07-26T12:21:06.575Z,26.80
2022-07-26T12:23:45.458Z,27.30
2022-07-26T12:26:25.203Z,27.90
2022-07-26T12:28:54.155Z,28.40
2022-07-26T12:31:30.574Z,28.60
2022-07-26T12:34:00.018Z,28.40
2022-07-26T12:36:29.903Z,28.20
2022-07-26T12:39:01.463Z,27.90
2022-07-26T12:41:35.697Z,27.80
2022-07-26T12:44:05.114Z,27.80
2022-07-26T12:46:34.586Z,28.40
2022-07-26T12:49:05.387Z,28.80
2022-07-26T12:51:34.369Z,28.90
2022-07-26T12:54:06.280Z,28.80
2022-07-26T12:56:36.353Z,28.80
2022-07-26T12:59:04.677Z,28.70
2022-07-26T13:01:34.087Z,28.50
2022-07-26T13:04:02.585Z,28.40
2022-07-26T13:06:32.745Z,28.40
2022-07-26T13:09:01.301Z,29.10
2022-07-26T13:11:31.493Z,29.10
2022-07-26T13:13:59.809Z,29.50
2022-07-26T13:16:28.372Z,29.60
2022-07-26T13:18:56.677Z,30.40
2022-07-26T13:21:25.120Z,29.50
2022-07-26T13:23:53.436Z,29.30
2022-07-26T13:26:21.968Z,29.00
2022-07-26T13:28:52.189Z,29.10
2022-07-26T13:31:20.651Z,29.80
2022-07-26T13:33:49.136Z,30.40
2022-07-26T13:36:17.532Z,31.10
2022-07-26T13:38:45.929Z,31.60
2022-07-26T13:41:14.233Z,31.60
2022-07-26T13:43:42.806Z,31.20
2022-07-26T13:46:12.595Z,30.80
2022-07-26T13:48:57.932Z,31.10
2022-07-26T13:51:44.845Z,30.10
2022-07-26T13:54:14.673Z,29.70
2022-07-26T13:56:44.322Z,29.30
2022-07-26T13:59:13.742Z,29.20
2022-07-26T14:01:45.234Z,29.50
2022-07-26T14:04:14.461Z,30.10
2022-07-26T14:06:43.730Z,30.90
2022-07-26T14:09:12.559Z,31.60
2022-07-26T14:11:41.925Z,32.40
2022-07-26T14:14:10.691Z,33.20
2022-07-26T14:16:39.929Z,33.30
2022-07-26T14:19:10.128Z,33.00
2022-07-26T14:21:47.447Z,32.60
2022-07-26T14:24:28.978Z,32.10
2022-07-26T14:26:59.509Z,31.40
2022-07-26T14:29:29.359Z,31.20
2022-07-26T14:31:58.176Z,31.50
2022-07-26T14:34:27.883Z,31.50
2022-07-26T14:36:56.184Z,31.20
2022-07-26T14:39:24.687Z,30.70
2022-07-26T14:41:53.021Z,30.30
2022-07-26T14:44:21.376Z,29.80
2022-07-26T14:46:49.745Z,29.50
2022-07-26T14:49:18.149Z,29.20
2022-07-26T14:51:48.299Z,29.00
2022-07-26T14:54:19.365Z,28.90
2022-07-26T14:56:48.964Z,28.80
2022-07-26T14:59:17.949Z,28.70
2022-07-26T15:01:46.423Z,29.60
2022-07-26T15:04:15.132Z,29.60
2022-07-26T15:06:43.500Z,30.70
2022-07-26T15:09:13.224Z,31.70
2022-07-26T15:11:41.875Z,32.60
2022-07-26T15:14:10.601Z,33.10
2022-07-26T15:16:39.267Z,33.20
2022-07-26T15:19:07.671Z,33.00
2022-07-26T15:21:36.056Z,33.10
2022-07-26T15:24:04.744Z,33.70
2022-07-26T15:26:34.655Z,34.30
2022-07-26T15:29:02.936Z,34.60
2022-07-26T15:31:37.216Z,35.00
2022-07-26T15:34:08.838Z,35.40
2022-07-26T15:36:38.045Z,35.70
2022-07-26T15:39:16.767Z,36.20
2022-07-26T15:41:48.376Z,36.30
2022-07-26T15:44:17.986Z,36.40
2022-07-26T15:46:48.023Z,36.40
2022-07-26T15:49:18.114Z,36.30
2022-07-26T15:51:46.658Z,36.20
2022-07-26T15:54:16.426Z,36.20
2022-07-26T15:56:45.329Z,35.80
2022-07-26T15:59:15.443Z,34.80
2022-07-26T16:01:44.128Z,33.90
2022-07-26T16:04:12.764Z,33.00
2022-07-26T16:06:41.922Z,32.40
2022-07-26T16:09:17.205Z,31.70
2022-07-26T16:11:46.875Z,31.20
2022-07-26T16:14:17.058Z,30.80
2022-07-26T16:16:45.989Z,30.40
2022-07-26T16:19:14.769Z,29.80
2022-07-26T16:21:43.419Z,29.80
2022-07-26T16:24:11.762Z,29.80
2022-07-26T16:26:40.946Z,29.60
2022-07-26T16:29:09.702Z,29.50
2022-07-26T16:31:41.499Z,29.20
2022-07-26T16:34:10.049Z,29.20
2022-07-26T16:36:38.818Z,29.10
2022-07-26T16:39:08.040Z,29.10
2022-07-26T16:41:37.213Z,29.00
2022-07-26T16:44:06.332Z,29.00
2022-07-26T16:46:34.720Z,28.80
2022-07-26T16:49:06.910Z,28.80
2022-07-26T16:51:35.559Z,28.70
2022-07-26T16:54:03.873Z,28.60
2022-07-26T16:56:32.745Z,28.50
2022-07-26T16:59:01.289Z,28.40
2022-07-26T17:01:29.714Z,28.30
2022-07-26T17:03:58.042Z,28.00
2022-07-26T17:06:27.839Z,27.90
2022-07-26T17:08:56.122Z,27.80
2022-07-26T17:11:24.431Z,27.70
2022-07-26T17:13:53.435Z,27.60
2022-07-26T17:16:24.631Z,27.50
2022-07-26T17:18:55.177Z,27.30
2022-07-26T17:21:24.070Z,27.20
2022-07-26T17:23:54.292Z,27.10
2022-07-26T17:26:22.593Z,27.10
2022-07-26T17:28:51.050Z,27.00
2022-07-26T17:31:19.690Z,27.00
2022-07-26T17:33:48.181Z,26.90
2022-07-26T17:36:25.069Z,26.80
2022-07-26T17:38:55.448Z,26.70
2022-07-26T17:41:28.859Z,26.70
2022-07-26T17:44:02.853Z,26.60
2022-07-26T17:46:32.603Z,26.50
2022-07-26T17:49:01.737Z,26.50
2022-07-26T17:51:30.163Z,26.60
2022-07-26T17:54:00.137Z,26.60
2022-07-26T17:56:28.921Z,26.60
2022-07-26T17:58:57.894Z,26.50
2022-07-26T18:01:26.464Z,26.50
2022-07-26T18:03:55.051Z,26.50
2022-07-26T18:06:23.461Z,26.50
2022-07-26T18:08:52.049Z,26.40
2022-07-26T18:11:21.746Z,26.40
2022-07-26T18:13:50.049Z,26.30
2022-07-26T18:16:18.823Z,26.20
2022-07-26T18:18:47.193Z,26.10
2022-07-26T18:21:15.653Z,26.00
2022-07-26T18:24:06.677Z,25.90
2022-07-26T18:26:34.075Z,25.90
2022-07-26T18:29:02.803Z,25.80
2022-07-26T18:31:31.234Z,25.70
2022-07-26T18:36:35.319Z,25.60
2022-07-26T18:39:03.733Z,25.60
2022-07-26T18:41:34.292Z,25.50
2022-07-26T18:44:02.860Z,25.50
2022-07-26T18:46:31.262Z,25.30
2022-07-26T18:49:02.471Z,25.30
2022-07-26T18:51:31.004Z,25.20
2022-07-26T18:54:00.213Z,25.10
2022-07-26T18:56:28.594Z,25.10
2022-07-26T18:58:58.334Z,24.90
2022-07-26T19:01:26.705Z,24.80
2022-07-26T19:03:55.236Z,24.70
2022-07-26T19:06:23.589Z,24.60
2022-07-26T19:08:52.261Z,24.50
2022-07-26T19:11:20.567Z,24.40
2022-07-26T19:13:48.943Z,24.30
2022-07-26T19:16:19.153Z,24.20
2022-07-26T19:18:50.849Z,24.10
2022-07-26T19:21:21.259Z,24.00
2022-07-26T19:23:49.554Z,23.90
2022-07-26T19:26:17.887Z,23.80
2022-07-26T19:28:46.258Z,23.80
2022-07-26T19:31:14.728Z,23.60
2022-07-26T19:33:44.510Z,23.60
2022-07-26T19:36:12.991Z,23.50
2022-07-26T19:38:46.636Z,23.50
2022-07-26T19:43:44.573Z,23.40
2022-07-26T19:46:12.949Z,23.30
2022-07-26T19:48:42.860Z,23.30
2022-07-26T19:51:11.242Z,23.30
2022-07-26T19:53:39.796Z,23.20
2022-07-26T19:56:08.424Z,23.20
2022-07-26T19:58:36.755Z,23.20
2022-07-26T20:01:05.336Z,23.10
2022-07-26T20:03:34.013Z,23.10
2022-07-26T20:06:03.768Z,23.10
2022-07-26T20:08:32.169Z,23.10
2022-07-26T20:11:00.540Z,23.10
2022-07-26T20:13:28.889Z,23.00
2022-07-26T20:15:57.222Z,23.00
2022-07-26T20:18:27.191Z,23.00
2022-07-26T20:20:56.177Z,22.90
2022-07-26T20:23:27.931Z,22.90
2022-07-26T20:25:56.397Z,22.90
2022-07-26T20:28:25.193Z,22.90
2022-07-26T20:30:54.915Z,22.90
2022-07-26T20:33:25.260Z,22.90
2022-07-26T20:35:55.258Z,22.80
2022-07-26T20:38:25.435Z,22.80
2022-07-26T20:40:54.070Z,22.80
2022-07-26T20:43:22.609Z,22.80
2022-07-26T20:45:51.305Z,22.80
2022-07-26T20:48:20.176Z,22.70
2022-07-26T20:50:48.541Z,22.70
2022-07-26T20:53:16.886Z,19.80
2022-07-26T20:55:46.667Z,22.70
2022-07-26T21:03:16.716Z,22.60
2022-07-26T21:05:45.115Z,22.60
2022-07-26T21:08:13.892Z,22.50
2022-07-26T21:10:42.177Z,22.50
2022-07-26T21:13:11.855Z,22.50
2022-07-26T21:15:42.050Z,22.50
2022-07-26T21:18:12.366Z,22.50
2022-07-26T21:23:17.263Z,22.50
2022-07-26T21:25:46.402Z,22.40
2022-07-26T21:28:16.257Z,22.40
2022-07-26T21:30:44.591Z,22.30
2022-07-26T21:33:12.960Z,22.30
2022-07-26T21:35:42.074Z,22.30
2022-07-26T21:38:10.980Z,22.30
2022-07-26T21:40:39.563Z,22.30
2022-07-26T21:43:07.963Z,22.30
2022-07-26T21:45:37.823Z,22.20
2022-07-26T21:48:07.722Z,22.20
2022-07-26T21:50:36.184Z,22.20
2022-07-26T21:53:04.770Z,22.10
2022-07-26T21:55:33.201Z,22.00
2022-07-26T21:58:01.498Z,22.20
2022-07-26T22:00:29.828Z,22.00
2022-07-26T22:02:59.514Z,22.00
2022-07-26T22:05:37.993Z,21.90
2022-07-26T22:08:09.776Z,21.80
2022-07-26T22:10:44.260Z,21.80
2022-07-26T22:13:14.181Z,21.00
2022-07-26T22:15:43.468Z,21.60
2022-07-26T22:18:13.692Z,21.60
2022-07-26T22:20:42.880Z,21.60
2022-07-26T22:23:13.270Z,21.50
2022-07-26T22:25:42.090Z,21.40
2022-07-26T22:28:18.503Z,21.40
2022-07-26T22:30:47.531Z,21.30
2022-07-26T22:33:18.489Z,21.20
2022-07-26T22:35:46.834Z,21.10
2022-07-26T22:38:15.324Z,21.10
2022-07-26T22:40:45.397Z,21.10
2022-07-26T22:43:14.807Z,21.00
2022-07-26T22:45:43.265Z,21.00
2022-07-26T22:48:11.805Z,20.80
2022-07-26T22:50:41.443Z,20.90
2022-07-26T22:53:09.765Z,20.90
2022-07-26T22:55:38.159Z,20.80
2022-07-26T23:00:35.310Z,20.80
2022-07-26T23:03:03.796Z,20.70
2022-07-26T23:05:39.962Z,20.60
2022-07-26T23:11:05.252Z,20.60
2022-07-26T23:13:33.841Z,20.50
2022-07-26T23:16:02.370Z,20.50
2022-07-26T23:18:31.373Z,20.50
2022-07-26T23:21:00.084Z,20.50
2022-07-26T23:23:30.248Z,20.40
2022-07-26T23:25:59.640Z,20.40
2022-07-26T23:28:37.685Z,20.40
2022-07-26T23:31:11.383Z,20.40
2022-07-26T23:33:51.357Z,20.40
2022-07-26T23:36:26.159Z,20.30
2022-07-26T23:38:57.192Z,20.30
2022-07-26T23:41:26.796Z,20.30
2022-07-26T23:43:55.832Z,20.30
2022-07-26T23:46:24.625Z,20.30
2022-07-26T23:48:54.515Z,20.20
2022-07-26T23:51:23.924Z,20.20
2022-07-26T23:53:52.982Z,20.20
2022-07-26T23:56:23.200Z,20.10
2022-07-26T23:58:51.634Z,20.10
